createdAt,value
2018-10-03T00:01:15.834Z,85.58
2018-10-03T00:03:44.967Z,86.54
2018-10-03T00:06:14.349Z,86.35
2018-10-03T00:08:43.392Z,86.04
2018-10-03T00:11:12.363Z,86.44
2018-10-03T00:13:41.322Z,86.61
2018-10-03T00:16:10.409Z,87.17
2018-10-03T00:18:40.047Z,87.25
2018-10-03T00:21:09.607Z,87.16
2018-10-03T00:23:38.755Z,87.21
2018-10-03T00:26:08.174Z,87.20
2018-10-03T00:28:37.302Z,86.68
2018-10-03T00:31:06.614Z,87.02
2018-10-03T00:33:35.676Z,86.67
2018-10-03T00:36:04.623Z,86.75
2018-10-03T00:38:34.339Z,86.47
2018-10-03T00:41:03.560Z,85.96
2018-10-03T00:43:32.523Z,85.72
2018-10-03T00:46:01.534Z,85.29
2018-10-03T00:48:30.816Z,85.12
2018-10-03T00:50:59.652Z,84.90
2018-10-03T00:53:28.764Z,84.13
2018-10-03T00:55:58.119Z,83.22
2018-10-03T00:58:27.103Z,83.01
2018-10-03T01:00:56.102Z,82.50
2018-10-03T01:03:24.998Z,82.45
2018-10-03T01:05:54.067Z,82.52
2018-10-03T01:08:23.082Z,82.32
2018-10-03T01:10:52.203Z,81.22
2018-10-03T01:13:21.283Z,81.07
2018-10-03T01:15:50.597Z,80.77
2018-10-03T01:18:19.995Z,80.15
2018-10-03T01:20:49.281Z,80.13
2018-10-03T01:23:18.381Z,79.98
2018-10-03T01:25:47.606Z,80.27
2018-10-03T01:28:16.769Z,79.68
2018-10-03T01:30:45.783Z,79.20
2018-10-03T01:33:15.143Z,78.54
2018-10-03T01:35:44.377Z,78.77
2018-10-03T01:38:13.717Z,78.92
2018-10-03T01:40:42.491Z,78.66
2018-10-03T01:43:11.571Z,78.48
2018-10-03T01:45:41.576Z,78.68
2018-10-03T01:48:10.384Z,79.28
2018-10-03T01:50:39.248Z,78.69
2018-10-03T01:53:08.459Z,78.64
2018-10-03T01:55:37.435Z,78.93
2018-10-03T01:58:06.423Z,78.69
2018-10-03T02:00:36.516Z,78.58
2018-10-03T02:03:05.375Z,78.39
2018-10-03T02:05:34.561Z,78.34
2018-10-03T02:08:03.352Z,78.81
2018-10-03T02:10:32.426Z,78.67
2018-10-03T02:13:02.062Z,78.81
2018-10-03T02:15:31.403Z,78.59
2018-10-03T02:18:00.453Z,77.79
2018-10-03T02:20:29.626Z,77.92
2018-10-03T02:22:58.823Z,77.76
2018-10-03T02:25:27.938Z,77.71
2018-10-03T02:27:56.957Z,77.59
2018-10-03T02:30:26.177Z,77.57
2018-10-03T02:32:55.215Z,77.54
2018-10-03T02:35:24.748Z,78.12
2018-10-03T02:37:53.955Z,77.79
2018-10-03T02:40:22.943Z,78.04
2018-10-03T02:42:52.659Z,77.96
2018-10-03T02:45:21.962Z,77.49
2018-10-03T02:47:52.627Z,77.55
2018-10-03T02:50:22.202Z,77.75
2018-10-03T02:52:51.302Z,77.84
2018-10-03T02:55:20.489Z,78.14
2018-10-03T02:57:50.718Z,78.12
2018-10-03T03:00:19.912Z,78.66
2018-10-03T03:02:48.823Z,78.62
2018-10-03T03:05:18.000Z,77.97
2018-10-03T03:07:47.291Z,78.68
2018-10-03T03:10:16.387Z,77.98
2018-10-03T03:12:45.398Z,77.83
2018-10-03T03:15:14.955Z,77.31
2018-10-03T03:17:44.008Z,77.86
2018-10-03T03:20:13.178Z,77.97
2018-10-03T03:22:42.563Z,77.69
2018-10-03T03:25:11.811Z,77.53
2018-10-03T03:27:40.900Z,77.54
2018-10-03T03:30:10.278Z,77.88
2018-10-03T03:32:39.474Z,78.47
2018-10-03T03:35:08.678Z,79.03
2018-10-03T03:37:38.223Z,78.78
2018-10-03T03:40:07.403Z,78.90
2018-10-03T03:42:36.470Z,78.98
2018-10-03T03:45:05.895Z,79.30
2018-10-03T03:47:35.026Z,79.38
2018-10-03T03:50:04.182Z,79.38
2018-10-03T03:52:33.308Z,79.50
2018-10-03T03:55:02.422Z,79.63
2018-10-03T03:57:31.772Z,79.41
2018-10-03T04:00:00.799Z,79.69
2018-10-03T04:02:30.032Z,79.61
2018-10-03T04:04:59.368Z,79.81
2018-10-03T04:07:28.437Z,79.41
2018-10-03T04:09:57.697Z,79.48
2018-10-03T04:12:27.283Z,79.76
2018-10-03T04:14:56.344Z,79.62
2018-10-03T04:17:25.506Z,79.92
2018-10-03T04:19:54.934Z,79.83
2018-10-03T04:22:24.111Z,79.82
2018-10-03T04:24:53.303Z,79.61
2018-10-03T04:27:22.611Z,79.20
2018-10-03T04:29:51.791Z,79.54
2018-10-03T04:32:21.116Z,79.47
2018-10-03T04:34:50.283Z,79.31
2018-10-03T04:37:19.352Z,79.13
2018-10-03T04:39:48.499Z,78.58
2018-10-03T04:42:18.138Z,78.46
2018-10-03T04:44:47.305Z,77.85
2018-10-03T04:47:16.379Z,77.71
2018-10-03T04:49:45.704Z,77.73
2018-10-03T04:52:14.854Z,77.12
2018-10-03T04:54:43.914Z,76.22
2018-10-03T04:57:13.315Z,76.23
2018-10-03T04:59:42.526Z,76.38
2018-10-03T05:02:11.803Z,76.21
2018-10-03T05:04:41.189Z,75.15
2018-10-03T05:07:10.384Z,75.59
2018-10-03T05:09:39.507Z,74.68
2018-10-03T05:12:08.815Z,74.55
2018-10-03T05:14:37.967Z,73.64
2018-10-03T05:17:07.827Z,72.84
2018-10-03T05:19:37.952Z,71.38
2018-10-03T05:22:06.967Z,70.68
2018-10-03T05:24:35.894Z,69.43
2018-10-03T05:27:05.357Z,68.69
2018-10-03T05:29:34.428Z,67.89
2018-10-03T05:32:03.715Z,68.00
2018-10-03T05:34:33.093Z,67.61
2018-10-03T05:37:02.247Z,65.59
2018-10-03T05:39:31.481Z,64.22
2018-10-03T05:42:00.966Z,61.92
2018-10-03T05:44:30.059Z,59.66
2018-10-03T05:46:59.234Z,58.90
2018-10-03T05:49:28.863Z,57.21
2018-10-03T05:51:58.155Z,56.74
2018-10-03T05:54:27.529Z,54.62
2018-10-03T05:56:56.740Z,55.28
2018-10-03T05:59:25.844Z,55.65
2018-10-03T06:01:54.833Z,55.54
2018-10-03T06:04:24.594Z,56.61
2018-10-03T06:06:53.757Z,56.39
2018-10-03T06:09:23.045Z,54.60
2018-10-03T06:11:52.524Z,54.54
2018-10-03T06:14:21.550Z,55.66
2018-10-03T06:16:50.719Z,56.89
2018-10-03T06:19:20.107Z,56.13
2018-10-03T06:21:49.514Z,54.94
2018-10-03T06:24:18.619Z,53.79
2018-10-03T06:26:47.787Z,54.22
2018-10-03T06:29:16.942Z,54.38
2018-10-03T06:31:46.841Z,54.16
2018-10-03T06:34:16.160Z,53.02
2018-10-03T06:36:45.319Z,51.92
2018-10-03T06:39:14.569Z,51.24
2018-10-03T06:41:44.007Z,51.24
2018-10-03T06:44:13.070Z,48.89
2018-10-03T06:46:42.233Z,48.95
2018-10-03T06:49:11.459Z,48.24
2018-10-03T06:51:40.619Z,47.34
2018-10-03T06:54:09.827Z,46.25
2018-10-03T06:56:39.427Z,45.77
2018-10-03T06:59:08.714Z,45.78
2018-10-03T07:01:37.747Z,44.85
2018-10-03T07:04:07.274Z,44.73
2018-10-03T07:06:36.542Z,43.39
2018-10-03T07:09:07.288Z,42.03
2018-10-03T07:11:36.916Z,41.93
2018-10-03T07:14:06.039Z,43.88
2018-10-03T07:16:35.292Z,44.96
2018-10-03T07:19:04.862Z,46.80
2018-10-03T07:21:33.907Z,46.18
2018-10-03T07:24:03.182Z,46.34
2018-10-03T07:26:32.600Z,45.26
2018-10-03T07:29:01.909Z,45.47
2018-10-03T07:31:30.880Z,44.38
2018-10-03T07:34:00.316Z,43.88
2018-10-03T07:36:29.511Z,43.59
2018-10-03T07:38:58.624Z,43.47
2018-10-03T07:41:27.838Z,43.30
2018-10-03T07:43:57.058Z,41.53
2018-10-03T07:46:26.394Z,40.93
2018-10-03T07:48:55.931Z,40.55
2018-10-03T07:51:25.061Z,40.41
2018-10-03T07:53:54.235Z,40.12
2018-10-03T07:56:23.633Z,41.53
2018-10-03T07:58:52.914Z,41.79
2018-10-03T08:01:22.001Z,41.37
2018-10-03T08:03:51.431Z,41.01
2018-10-03T08:06:20.700Z,41.65
2018-10-03T08:08:49.979Z,43.15
2018-10-03T08:11:19.118Z,44.14
2018-10-03T08:13:48.147Z,45.73
2018-10-03T08:16:17.412Z,46.39
2018-10-03T08:18:46.864Z,46.07
2018-10-03T08:21:16.121Z,46.87
2018-10-03T08:23:45.666Z,45.37
2018-10-03T08:26:15.151Z,44.06
2018-10-03T08:28:44.419Z,44.98
2018-10-03T08:31:13.595Z,44.45
2018-10-03T08:33:42.933Z,43.23
2018-10-03T08:36:12.214Z,44.58
2018-10-03T08:38:41.451Z,43.39
2018-10-03T08:41:10.843Z,43.53
2018-10-03T08:43:40.136Z,43.73
2018-10-03T08:46:09.426Z,43.90
2018-10-03T08:48:38.859Z,44.07
2018-10-03T08:51:08.600Z,44.46
2018-10-03T08:53:37.649Z,45.53
2018-10-03T08:56:06.955Z,45.02
2018-10-03T08:58:36.293Z,44.27
2018-10-03T09:01:05.424Z,43.76
2018-10-03T09:03:34.782Z,43.47
2018-10-03T09:06:03.928Z,43.63
2018-10-03T09:08:32.938Z,44.31
2018-10-03T09:11:01.852Z,43.99
2018-10-03T09:13:30.840Z,44.08
2018-10-03T09:15:59.939Z,44.67
2018-10-03T09:18:29.456Z,45.11
2018-10-03T09:20:58.549Z,45.59
2018-10-03T09:23:27.773Z,45.38
2018-10-03T09:25:57.154Z,44.22
2018-10-03T09:28:26.382Z,44.07
2018-10-03T09:30:55.362Z,44.48
2018-10-03T09:33:24.762Z,44.26
2018-10-03T09:35:53.628Z,43.50
2018-10-03T09:38:22.832Z,45.03
2018-10-03T09:40:52.256Z,45.23
2018-10-03T09:43:21.533Z,45.10
2018-10-03T09:45:50.762Z,44.95
2018-10-03T09:48:20.076Z,45.73
2018-10-03T09:50:49.178Z,45.96
2018-10-03T09:53:18.236Z,45.46
2018-10-03T09:55:47.367Z,45.25
2018-10-03T09:58:16.379Z,45.05
2018-10-03T10:00:50.675Z,44.43
2018-10-03T10:03:19.830Z,45.23
2018-10-03T10:05:49.163Z,44.28
2018-10-03T10:08:18.767Z,44.46
2018-10-03T10:10:47.855Z,43.65
2018-10-03T10:13:16.950Z,43.69
2018-10-03T10:15:46.519Z,42.35
2018-10-03T10:18:15.456Z,42.51
2018-10-03T10:20:44.720Z,42.60
2018-10-03T10:23:14.020Z,42.45
2018-10-03T10:25:43.115Z,41.43
2018-10-03T10:28:12.139Z,41.49
2018-10-03T10:30:41.760Z,41.61
2018-10-03T10:33:11.119Z,41.88
2018-10-03T10:35:40.383Z,42.59
2018-10-03T10:38:09.807Z,43.01
2018-10-03T10:40:38.800Z,44.11
2018-10-03T10:43:07.743Z,43.35
2018-10-03T10:45:36.950Z,43.08
2018-10-03T10:48:06.096Z,43.07
2018-10-03T10:50:35.218Z,42.32
2018-10-03T10:53:04.585Z,42.47
2018-10-03T10:55:33.663Z,42.51
2018-10-03T10:58:02.910Z,43.17
2018-10-03T11:00:32.231Z,42.25
2018-10-03T11:03:01.306Z,42.33
2018-10-03T11:05:30.283Z,42.65
2018-10-03T11:07:59.815Z,42.13
2018-10-03T11:10:29.411Z,42.43
2018-10-03T11:12:58.546Z,42.37
2018-10-03T11:15:27.876Z,41.88
2018-10-03T11:17:57.038Z,41.06
2018-10-03T11:20:26.183Z,41.25
2018-10-03T11:22:55.763Z,41.48
2018-10-03T11:25:24.859Z,41.04
2018-10-03T11:27:53.949Z,41.20
2018-10-03T11:30:23.223Z,41.40
2018-10-03T11:32:52.282Z,42.58
2018-10-03T11:35:21.335Z,40.95
2018-10-03T11:37:50.781Z,42.10
2018-10-03T11:40:19.910Z,42.53
2018-10-03T11:42:49.914Z,42.75
2018-10-03T11:45:19.331Z,42.64
2018-10-03T11:47:48.411Z,42.44
2018-10-03T11:50:17.335Z,42.29
2018-10-03T11:52:46.902Z,41.41
2018-10-03T11:55:15.932Z,42.17
2018-10-03T11:57:45.131Z,41.61
2018-10-03T12:00:14.491Z,43.14
2018-10-03T12:02:43.681Z,42.29
2018-10-03T12:05:12.983Z,42.59
2018-10-03T12:07:42.492Z,42.39
2018-10-03T12:10:11.767Z,41.60
2018-10-03T12:12:40.845Z,41.48
2018-10-03T12:15:10.283Z,41.29
2018-10-03T12:17:39.371Z,41.46
2018-10-03T12:20:08.627Z,41.81
2018-10-03T12:22:37.905Z,41.63
2018-10-03T12:25:07.097Z,40.89
2018-10-03T12:27:36.248Z,41.39
2018-10-03T12:30:05.985Z,41.65
2018-10-03T12:32:35.091Z,42.28
2018-10-03T12:35:04.270Z,42.78
2018-10-03T12:37:33.778Z,42.92
2018-10-03T12:40:03.062Z,42.80
2018-10-03T12:42:32.139Z,42.88
2018-10-03T12:45:01.308Z,42.43
2018-10-03T12:47:30.315Z,42.05
2018-10-03T12:49:59.507Z,42.25
2018-10-03T12:52:28.989Z,42.44
2018-10-03T12:54:58.224Z,42.18
2018-10-03T12:57:27.315Z,41.93
2018-10-03T12:59:56.596Z,41.98
2018-10-03T13:02:25.759Z,42.03
2018-10-03T13:04:55.033Z,41.26
2018-10-03T13:07:24.279Z,40.79
2018-10-03T13:09:53.411Z,41.10
2018-10-03T13:12:22.565Z,40.85
2018-10-03T13:14:52.242Z,40.19
2018-10-03T13:17:21.369Z,40.12
2018-10-03T13:19:50.475Z,39.88
2018-10-03T13:24:47.435Z,41.40
2018-10-03T13:27:16.738Z,40.42
2018-10-03T13:29:46.132Z,41.08
2018-10-03T13:32:15.454Z,40.34
2018-10-03T13:34:44.719Z,40.40
2018-10-03T13:37:14.198Z,40.82
2018-10-03T13:39:43.344Z,40.40
2018-10-03T13:42:12.547Z,40.76
2018-10-03T13:44:41.947Z,40.19
2018-10-03T13:47:11.054Z,40.62
2018-10-03T13:49:40.139Z,40.94
2018-10-03T13:52:09.771Z,40.97
2018-10-03T13:54:39.038Z,40.75
2018-10-03T13:57:08.165Z,41.04
2018-10-03T13:59:37.479Z,41.12
2018-10-03T14:02:06.571Z,41.24
2018-10-03T14:04:35.660Z,41.48
2018-10-03T14:07:05.051Z,40.96
2018-10-03T14:09:34.151Z,40.72
2018-10-03T14:12:03.134Z,40.35
2018-10-03T14:14:32.332Z,40.37
2018-10-03T14:17:01.354Z,39.74
2018-10-03T14:19:30.486Z,40.04
2018-10-03T14:21:59.628Z,40.48
2018-10-03T14:24:28.792Z,40.59
2018-10-03T14:26:57.924Z,41.29
2018-10-03T14:29:27.151Z,41.17
2018-10-03T14:31:56.311Z,41.16
2018-10-03T14:34:25.294Z,41.31
2018-10-03T14:36:54.527Z,42.16
2018-10-03T14:39:23.688Z,41.48
2018-10-03T14:41:52.891Z,41.48
2018-10-03T14:44:22.367Z,41.23
2018-10-03T14:46:51.491Z,41.43
2018-10-03T14:49:20.691Z,40.77
2018-10-03T14:51:50.687Z,40.80
2018-10-03T14:54:19.831Z,40.67
2018-10-03T14:56:48.948Z,40.91
2018-10-03T14:59:17.959Z,40.76
2018-10-03T15:01:47.434Z,40.32
2018-10-03T15:04:16.507Z,40.23
2018-10-03T15:06:45.590Z,40.71
2018-10-03T15:09:14.644Z,40.46
2018-10-03T15:11:43.812Z,40.96
2018-10-03T15:14:13.211Z,40.75
2018-10-03T15:16:42.313Z,40.81
2018-10-03T15:19:11.614Z,40.82
2018-10-03T15:21:40.720Z,41.39
2018-10-03T15:24:09.761Z,41.14
2018-10-03T15:26:38.990Z,41.37
2018-10-03T15:29:08.320Z,42.04
2018-10-03T15:31:37.588Z,42.57
2018-10-03T15:34:06.821Z,42.53
2018-10-03T15:36:36.247Z,42.63
2018-10-03T15:39:06.368Z,43.53
2018-10-03T15:41:35.504Z,43.75
2018-10-03T15:44:04.759Z,44.44
2018-10-03T15:46:34.129Z,44.38
2018-10-03T15:49:03.299Z,44.60
2018-10-03T15:51:32.629Z,45.25
2018-10-03T15:54:01.744Z,45.19
2018-10-03T15:56:30.829Z,45.28
2018-10-03T15:59:00.132Z,45.83
2018-10-03T16:01:29.887Z,45.52
2018-10-03T16:03:59.055Z,45.88
2018-10-03T16:06:28.419Z,45.44
2018-10-03T16:08:57.453Z,45.32
2018-10-03T16:11:26.627Z,45.59
2018-10-03T16:13:55.787Z,45.13
2018-10-03T16:16:24.922Z,45.49
2018-10-03T16:18:54.250Z,45.38
2018-10-03T16:21:24.092Z,45.28
2018-10-03T16:23:53.318Z,45.33
2018-10-03T16:26:22.463Z,45.43
2018-10-03T16:28:51.930Z,44.88
2018-10-03T16:31:20.967Z,44.92
2018-10-03T16:33:50.097Z,44.61
2018-10-03T16:36:19.598Z,44.99
2018-10-03T16:38:48.789Z,45.07
2018-10-03T16:41:17.786Z,45.25
2018-10-03T16:43:47.095Z,45.16
2018-10-03T16:46:16.386Z,45.95
2018-10-03T16:48:46.780Z,46.01
2018-10-03T16:51:16.160Z,46.09
2018-10-03T16:53:45.091Z,46.45
2018-10-03T16:56:14.062Z,46.15
2018-10-03T16:58:43.392Z,46.47
2018-10-03T17:01:12.520Z,46.33
2018-10-03T17:03:41.578Z,46.73
2018-10-03T17:06:11.107Z,46.26
2018-10-03T17:08:40.286Z,46.22
2018-10-03T17:11:09.299Z,45.69
2018-10-03T17:13:48.880Z,45.72
2018-10-03T17:16:18.084Z,46.30
2018-10-03T17:18:47.391Z,45.75
2018-10-03T17:21:16.655Z,45.59
2018-10-03T17:23:45.736Z,45.78
2018-10-03T17:26:14.813Z,46.01
2018-10-03T17:28:43.815Z,45.95
2018-10-03T17:31:12.855Z,46.22
2018-10-03T17:33:42.051Z,46.19
2018-10-03T17:36:11.446Z,46.07
2018-10-03T17:38:40.812Z,45.93
2018-10-03T17:41:09.856Z,46.40
2018-10-03T17:43:39.214Z,46.65
2018-10-03T17:46:08.505Z,46.66
2018-10-03T17:48:37.710Z,46.21
2018-10-03T17:51:07.183Z,45.92
2018-10-03T17:53:36.302Z,46.18
2018-10-03T17:56:05.447Z,46.49
2018-10-03T17:58:34.831Z,46.57
2018-10-03T18:01:04.087Z,46.40
2018-10-03T18:03:33.215Z,46.36
2018-10-03T18:06:02.440Z,46.74
2018-10-03T18:08:31.607Z,46.52
2018-10-03T18:11:00.647Z,46.55
2018-10-03T18:13:30.078Z,46.28
2018-10-03T18:15:59.369Z,46.52
2018-10-03T18:18:28.432Z,46.27
2018-10-03T18:20:57.574Z,46.50
2018-10-03T18:23:26.703Z,46.74
2018-10-03T18:25:55.890Z,46.64
2018-10-03T18:28:25.371Z,46.66
2018-10-03T18:30:54.494Z,46.50
2018-10-03T18:33:23.643Z,46.15
2018-10-03T18:35:52.735Z,45.90
2018-10-03T18:38:21.891Z,46.24
2018-10-03T18:40:50.864Z,46.46
2018-10-03T18:43:20.238Z,46.36
2018-10-03T18:45:49.611Z,46.47
2018-10-03T18:48:18.906Z,46.21
2018-10-03T18:50:48.567Z,46.42
2018-10-03T18:53:17.669Z,46.77
2018-10-03T18:55:46.895Z,46.73
2018-10-03T18:58:16.418Z,46.55
2018-10-03T19:00:45.588Z,47.06
2018-10-03T19:03:14.510Z,46.84
2018-10-03T19:05:43.656Z,47.03
2018-10-03T19:08:12.701Z,47.48
2018-10-03T19:10:41.971Z,46.89
2018-10-03T19:13:11.033Z,47.12
2018-10-03T19:15:40.280Z,46.62
2018-10-03T19:18:09.605Z,46.54
2018-10-03T19:20:38.818Z,46.62
2018-10-03T19:23:07.896Z,46.99
2018-10-03T19:25:36.999Z,46.58
2018-10-03T19:28:06.026Z,47.02
2018-10-03T19:30:36.328Z,46.80
2018-10-03T19:33:05.405Z,46.92
2018-10-03T19:35:35.777Z,46.82
2018-10-03T19:38:04.974Z,46.67
2018-10-03T19:40:34.091Z,46.82
2018-10-03T19:43:03.155Z,47.23
2018-10-03T19:45:32.276Z,47.50
2018-10-03T19:48:01.186Z,47.32
2018-10-03T19:50:30.463Z,47.78
2018-10-03T19:52:59.404Z,47.61
2018-10-03T19:55:28.507Z,48.04
2018-10-03T19:57:58.207Z,48.38
2018-10-03T20:00:27.417Z,48.08
2018-10-03T20:02:56.428Z,48.10
2018-10-03T20:05:25.655Z,48.41
2018-10-03T20:07:54.878Z,47.81
2018-10-03T20:10:23.960Z,47.86
2018-10-03T20:12:53.469Z,48.17
2018-10-03T20:15:22.615Z,48.67
2018-10-03T20:17:51.774Z,48.64
2018-10-03T20:20:21.084Z,48.81
2018-10-03T20:22:50.102Z,48.94
2018-10-03T20:25:19.159Z,48.62
2018-10-03T20:27:48.466Z,48.98
2018-10-03T20:30:17.709Z,49.53
2018-10-03T20:32:47.011Z,49.24
2018-10-03T20:35:16.139Z,49.63
2018-10-03T20:37:45.211Z,49.57
2018-10-03T20:40:14.302Z,49.76
2018-10-03T20:42:47.528Z,49.92
2018-10-03T20:45:16.593Z,50.32
2018-10-03T20:47:47.790Z,50.01
2018-10-03T20:50:16.906Z,50.48
2018-10-03T20:52:45.935Z,50.49
2018-10-03T20:55:15.028Z,50.57
2018-10-03T20:57:44.505Z,50.37
2018-10-03T21:00:13.530Z,50.53
2018-10-03T21:02:42.531Z,50.62
2018-10-03T21:05:11.569Z,50.54
2018-10-03T21:07:40.616Z,50.16
2018-10-03T21:10:09.978Z,49.97
2018-10-03T21:12:39.087Z,50.20
2018-10-03T21:15:08.509Z,50.52
2018-10-03T21:17:37.725Z,50.38
2018-10-03T21:20:06.879Z,50.54
2018-10-03T21:22:36.090Z,51.02
2018-10-03T21:25:05.317Z,51.07
2018-10-03T21:27:34.547Z,51.04
2018-10-03T21:30:03.623Z,51.39
2018-10-03T21:32:32.755Z,51.16
2018-10-03T21:35:02.179Z,51.05
2018-10-03T21:37:31.205Z,51.46
2018-10-03T21:40:00.201Z,51.35
2018-10-03T21:42:29.642Z,51.41
2018-10-03T21:44:58.711Z,51.60
2018-10-03T21:47:27.906Z,52.15
2018-10-03T21:49:57.161Z,52.40
2018-10-03T21:52:26.219Z,52.39
2018-10-03T21:54:55.383Z,52.06
2018-10-03T21:57:24.638Z,52.08
2018-10-03T21:59:53.894Z,52.03
2018-10-03T22:02:23.150Z,51.87
2018-10-03T22:04:52.747Z,52.35
2018-10-03T22:07:22.552Z,52.09
2018-10-03T22:09:51.696Z,51.95
2018-10-03T22:12:21.215Z,52.41
2018-10-03T22:14:50.415Z,52.76
2018-10-03T22:17:23.519Z,52.62
2018-10-03T22:19:53.191Z,53.26
2018-10-03T22:22:22.490Z,52.83
2018-10-03T22:24:52.023Z,53.46
2018-10-03T22:27:21.029Z,53.21
2018-10-03T22:29:50.024Z,54.02
2018-10-03T22:32:19.006Z,54.29
2018-10-03T22:34:48.183Z,54.06
2018-10-03T22:37:17.547Z,54.41
2018-10-03T22:39:46.602Z,54.43
2018-10-03T22:42:15.746Z,54.70
2018-10-03T22:44:45.236Z,55.02
2018-10-03T22:47:14.319Z,55.10
2018-10-03T22:49:43.235Z,55.11
2018-10-03T22:52:12.404Z,55.23
2018-10-03T22:54:41.435Z,55.16
2018-10-03T22:57:10.439Z,55.11
2018-10-03T22:59:39.838Z,55.47
2018-10-03T23:02:09.156Z,55.77
2018-10-03T23:04:38.587Z,55.92
2018-10-03T23:07:07.927Z,56.07
2018-10-03T23:09:37.225Z,56.24
2018-10-03T23:12:06.444Z,56.63
2018-10-03T23:14:35.975Z,56.11
2018-10-03T23:17:05.054Z,56.17
2018-10-03T23:19:34.002Z,56.53
2018-10-03T23:22:03.449Z,56.46
2018-10-03T23:24:32.391Z,56.47
2018-10-03T23:27:01.407Z,56.25
2018-10-03T23:29:30.846Z,55.75
2018-10-03T23:32:00.535Z,56.19
2018-10-03T23:34:29.695Z,56.17
2018-10-03T23:36:59.023Z,56.22
2018-10-03T23:39:28.087Z,56.26
2018-10-03T23:41:57.119Z,56.58
2018-10-03T23:44:26.467Z,56.69
2018-10-03T23:46:55.527Z,56.69
2018-10-03T23:49:24.774Z,56.75
2018-10-03T23:51:54.075Z,56.42
2018-10-03T23:54:23.095Z,56.57
2018-10-03T23:56:52.243Z,56.88
2018-10-03T23:59:21.664Z,57.00
